sensor_id;sensor_type;location;lat;lon;timestamp;P1;durP1;ratioP1;P2;durP2;ratioP2
54372;SDS011;69157;53.094;10.016;2023-07-22T00:00:51;5.15;;;2.50;;
54372;SDS011;69157;53.094;10.016;2023-07-22T00:03:18;5.32;;;3.10;;
54372;SDS011;69157;53.094;10.016;2023-07-22T00:05:44;4.55;;;2.95;;
54372;SDS011;69157;53.094;10.016;2023-07-22T00:08:10;4.75;;;2.60;;
54372;SDS011;69157;53.094;10.016;2023-07-22T00:10:39;4.63;;;2.83;;
54372;SDS011;69157;53.094;10.016;2023-07-22T00:13:06;9.02;;;3.15;;
54372;SDS011;69157;53.094;10.016;2023-07-22T00:15:32;6.68;;;2.92;;
54372;SDS011;69157;53.094;10.016;2023-07-22T00:17:58;6.40;;;3.30;;
54372;SDS011;69157;53.094;10.016;2023-07-22T00:20:24;6.70;;;3.45;;
54372;SDS011;69157;53.094;10.016;2023-07-22T00:22:50;5.93;;;3.47;;
54372;SDS011;69157;53.094;10.016;2023-07-22T00:25:16;6.88;;;3.15;;
54372;SDS011;69157;53.094;10.016;2023-07-22T00:27:43;6.13;;;3.72;;
54372;SDS011;69157;53.094;10.016;2023-07-22T00:30:09;5.97;;;3.63;;
54372;SDS011;69157;53.094;10.016;2023-07-22T00:32:37;7.32;;;3.90;;
54372;SDS011;69157;53.094;10.016;2023-07-22T00:35:04;6.30;;;3.92;;
54372;SDS011;69157;53.094;10.016;2023-07-22T00:37:30;6.88;;;3.35;;
54372;SDS011;69157;53.094;10.016;2023-07-22T00:39:57;7.03;;;3.75;;
54372;SDS011;69157;53.094;10.016;2023-07-22T00:42:23;6.72;;;3.90;;
54372;SDS011;69157;53.094;10.016;2023-07-22T00:44:49;6.18;;;3.63;;
54372;SDS011;69157;53.094;10.016;2023-07-22T00:47:15;7.03;;;3.25;;
54372;SDS011;69157;53.094;10.016;2023-07-22T00:49:42;7.55;;;3.95;;
54372;SDS011;69157;53.094;10.016;2023-07-22T00:52:08;10.05;;;3.90;;
54372;SDS011;69157;53.094;10.016;2023-07-22T00:54:34;7.78;;;3.92;;
54372;SDS011;69157;53.094;10.016;2023-07-22T00:57:00;8.93;;;3.88;;
54372;SDS011;69157;53.094;10.016;2023-07-22T00:59:26;7.88;;;4.03;;
54372;SDS011;69157;53.094;10.016;2023-07-22T01:01:53;7.05;;;4.07;;
54372;SDS011;69157;53.094;10.016;2023-07-22T01:04:19;6.60;;;3.90;;
54372;SDS011;69157;53.094;10.016;2023-07-22T01:06:47;8.18;;;3.67;;
54372;SDS011;69157;53.094;10.016;2023-07-22T01:09:13;6.18;;;3.15;;
54372;SDS011;69157;53.094;10.016;2023-07-22T01:11:39;11.90;;;4.30;;
54372;SDS011;69157;53.094;10.016;2023-07-22T01:14:05;8.40;;;3.75;;
54372;SDS011;69157;53.094;10.016;2023-07-22T01:16:33;13.05;;;3.97;;
54372;SDS011;69157;53.094;10.016;2023-07-22T01:18:59;8.57;;;3.92;;
54372;SDS011;69157;53.094;10.016;2023-07-22T01:21:25;14.07;;;4.40;;
54372;SDS011;69157;53.094;10.016;2023-07-22T01:23:52;9.85;;;4.55;;
54372;SDS011;69157;53.094;10.016;2023-07-22T01:26:18;8.05;;;4.13;;
54372;SDS011;69157;53.094;10.016;2023-07-22T01:28:45;6.82;;;3.60;;
54372;SDS011;69157;53.094;10.016;2023-07-22T01:31:11;7.68;;;4.03;;
54372;SDS011;69157;53.094;10.016;2023-07-22T01:33:37;8.25;;;3.95;;
54372;SDS011;69157;53.094;10.016;2023-07-22T01:36:04;6.35;;;3.83;;
54372;SDS011;69157;53.094;10.016;2023-07-22T01:38:30;7.22;;;3.80;;
54372;SDS011;69157;53.094;10.016;2023-07-22T01:40:56;8.23;;;4.05;;
54372;SDS011;69157;53.094;10.016;2023-07-22T01:43:22;6.97;;;3.70;;
54372;SDS011;69157;53.094;10.016;2023-07-22T01:45:49;9.05;;;4.30;;
54372;SDS011;69157;53.094;10.016;2023-07-22T01:48:15;8.15;;;3.88;;
54372;SDS011;69157;53.094;10.016;2023-07-22T01:50:41;6.47;;;3.95;;
54372;SDS011;69157;53.094;10.016;2023-07-22T01:53:07;7.47;;;3.97;;
54372;SDS011;69157;53.094;10.016;2023-07-22T01:55:33;7.25;;;4.13;;
54372;SDS011;69157;53.094;10.016;2023-07-22T01:58:00;8.18;;;3.78;;
54372;SDS011;69157;53.094;10.016;2023-07-22T02:00:26;7.60;;;3.58;;
54372;SDS011;69157;53.094;10.016;2023-07-22T02:02:53;9.32;;;4.18;;
54372;SDS011;69157;53.094;10.016;2023-07-22T02:05:19;6.88;;;3.92;;
54372;SDS011;69157;53.094;10.016;2023-07-22T02:07:46;11.05;;;3.95;;
54372;SDS011;69157;53.094;10.016;2023-07-22T02:10:12;8.38;;;3.80;;
54372;SDS011;69157;53.094;10.016;2023-07-22T02:12:38;9.85;;;3.92;;
54372;SDS011;69157;53.094;10.016;2023-07-22T02:15:04;6.57;;;3.88;;
54372;SDS011;69157;53.094;10.016;2023-07-22T02:17:30;7.82;;;4.07;;
54372;SDS011;69157;53.094;10.016;2023-07-22T02:19:56;9.27;;;3.90;;
54372;SDS011;69157;53.094;10.016;2023-07-22T02:22:23;8.85;;;4.38;;
54372;SDS011;69157;53.094;10.016;2023-07-22T02:24:49;9.50;;;3.50;;
54372;SDS011;69157;53.094;10.016;2023-07-22T02:27:15;6.63;;;3.50;;
54372;SDS011;69157;53.094;10.016;2023-07-22T02:29:41;7.90;;;3.80;;
54372;SDS011;69157;53.094;10.016;2023-07-22T02:32:07;12.10;;;4.18;;
54372;SDS011;69157;53.094;10.016;2023-07-22T02:34:34;8.82;;;4.25;;
54372;SDS011;69157;53.094;10.016;2023-07-22T02:37:00;11.25;;;3.85;;
54372;SDS011;69157;53.094;10.016;2023-07-22T02:39:26;7.20;;;3.30;;
54372;SDS011;69157;53.094;10.016;2023-07-22T02:41:52;9.98;;;4.25;;
54372;SDS011;69157;53.094;10.016;2023-07-22T02:44:18;7.68;;;3.58;;
54372;SDS011;69157;53.094;10.016;2023-07-22T02:46:43;6.40;;;3.45;;
54372;SDS011;69157;53.094;10.016;2023-07-22T02:49:09;7.68;;;3.63;;
54372;SDS011;69157;53.094;10.016;2023-07-22T02:51:35;8.98;;;3.72;;
54372;SDS011;69157;53.094;10.016;2023-07-22T02:54:02;7.82;;;3.35;;
54372;SDS011;69157;53.094;10.016;2023-07-22T02:56:28;8.18;;;3.70;;
54372;SDS011;69157;53.094;10.016;2023-07-22T02:58:54;7.68;;;3.13;;
54372;SDS011;69157;53.094;10.016;2023-07-22T03:01:20;5.93;;;2.72;;
54372;SDS011;69157;53.094;10.016;2023-07-22T03:03:46;8.65;;;3.58;;
54372;SDS011;69157;53.094;10.016;2023-07-22T03:06:13;11.80;;;3.22;;
54372;SDS011;69157;53.094;10.016;2023-07-22T03:08:39;8.00;;;3.53;;
54372;SDS011;69157;53.094;10.016;2023-07-22T03:11:05;5.88;;;2.97;;
54372;SDS011;69157;53.094;10.016;2023-07-22T03:13:31;9.05;;;3.45;;
54372;SDS011;69157;53.094;10.016;2023-07-22T03:15:59;8.13;;;3.13;;
54372;SDS011;69157;53.094;10.016;2023-07-22T03:18:25;6.45;;;2.97;;
54372;SDS011;69157;53.094;10.016;2023-07-22T03:20:51;10.48;;;3.20;;
54372;SDS011;69157;53.094;10.016;2023-07-22T03:23:17;7.22;;;3.25;;
54372;SDS011;69157;53.094;10.016;2023-07-22T03:25:44;12.38;;;3.22;;
54372;SDS011;69157;53.094;10.016;2023-07-22T03:28:11;6.35;;;3.25;;
54372;SDS011;69157;53.094;10.016;2023-07-22T03:30:37;6.82;;;3.60;;
54372;SDS011;69157;53.094;10.016;2023-07-22T03:33:03;7.28;;;3.70;;
54372;SDS011;69157;53.094;10.016;2023-07-22T03:35:29;7.57;;;3.40;;
54372;SDS011;69157;53.094;10.016;2023-07-22T03:37:55;7.55;;;3.03;;
54372;SDS011;69157;53.094;10.016;2023-07-22T03:40:21;8.15;;;3.47;;
54372;SDS011;69157;53.094;10.016;2023-07-22T03:42:57;7.68;;;3.22;;
54372;SDS011;69157;53.094;10.016;2023-07-22T03:45:23;6.97;;;3.28;;
54372;SDS011;69157;53.094;10.016;2023-07-22T03:47:51;6.10;;;2.50;;
54372;SDS011;69157;53.094;10.016;2023-07-22T03:50:17;7.15;;;2.80;;
54372;SDS011;69157;53.094;10.016;2023-07-22T03:52:43;7.63;;;3.58;;
54372;SDS011;69157;53.094;10.016;2023-07-22T03:55:09;7.88;;;3.30;;
54372;SDS011;69157;53.094;10.016;2023-07-22T03:57:35;6.88;;;3.13;;
54372;SDS011;69157;53.094;10.016;2023-07-22T04:00:02;8.75;;;3.75;;
54372;SDS011;69157;53.094;10.016;2023-07-22T04:02:31;12.10;;;3.45;;
54372;SDS011;69157;53.094;10.016;2023-07-22T04:04:57;8.65;;;3.53;;
54372;SDS011;69157;53.094;10.016;2023-07-22T04:07:23;7.32;;;3.15;;
54372;SDS011;69157;53.094;10.016;2023-07-22T04:09:49;7.65;;;3.70;;
54372;SDS011;69157;53.094;10.016;2023-07-22T04:12:15;10.32;;;3.75;;
54372;SDS011;69157;53.094;10.016;2023-07-22T04:14:42;9.73;;;3.83;;
54372;SDS011;69157;53.094;10.016;2023-07-22T04:17:07;8.07;;;3.67;;
54372;SDS011;69157;53.094;10.016;2023-07-22T04:19:34;10.35;;;3.80;;
54372;SDS011;69157;53.094;10.016;2023-07-22T04:22:00;9.95;;;3.17;;
54372;SDS011;69157;53.094;10.016;2023-07-22T04:24:29;10.60;;;3.65;;
54372;SDS011;69157;53.094;10.016;2023-07-22T04:26:56;8.68;;;4.03;;
54372;SDS011;69157;53.094;10.016;2023-07-22T04:29:22;9.32;;;3.38;;
54372;SDS011;69157;53.094;10.016;2023-07-22T04:31:48;8.48;;;3.05;;
54372;SDS011;69157;53.094;10.016;2023-07-22T04:34:14;11.18;;;4.07;;
54372;SDS011;69157;53.094;10.016;2023-07-22T04:36:40;7.93;;;3.25;;
54372;SDS011;69157;53.094;10.016;2023-07-22T04:39:06;7.97;;;2.95;;
54372;SDS011;69157;53.094;10.016;2023-07-22T04:41:33;7.75;;;3.50;;
54372;SDS011;69157;53.094;10.016;2023-07-22T04:43:59;8.48;;;2.88;;
54372;SDS011;69157;53.094;10.016;2023-07-22T04:46:25;9.45;;;4.30;;
54372;SDS011;69157;53.094;10.016;2023-07-22T04:48:54;9.40;;;3.15;;
54372;SDS011;69157;53.094;10.016;2023-07-22T04:51:21;9.45;;;3.20;;
54372;SDS011;69157;53.094;10.016;2023-07-22T04:53:47;12.45;;;3.13;;
54372;SDS011;69157;53.094;10.016;2023-07-22T04:56:13;7.53;;;2.95;;
54372;SDS011;69157;53.094;10.016;2023-07-22T04:58:39;6.75;;;2.95;;
54372;SDS011;69157;53.094;10.016;2023-07-22T05:01:05;8.43;;;3.47;;
54372;SDS011;69157;53.094;10.016;2023-07-22T05:03:31;7.80;;;2.78;;
54372;SDS011;69157;53.094;10.016;2023-07-22T05:05:57;6.70;;;3.15;;
54372;SDS011;69157;53.094;10.016;2023-07-22T05:08:23;8.52;;;3.08;;
54372;SDS011;69157;53.094;10.016;2023-07-22T05:10:49;7.30;;;2.38;;
54372;SDS011;69157;53.094;10.016;2023-07-22T05:13:15;6.35;;;2.58;;
54372;SDS011;69157;53.094;10.016;2023-07-22T05:15:41;4.25;;;2.50;;
54372;SDS011;69157;53.094;10.016;2023-07-22T05:18:08;5.93;;;2.40;;
54372;SDS011;69157;53.094;10.016;2023-07-22T05:20:34;4.20;;;2.53;;
54372;SDS011;69157;53.094;10.016;2023-07-22T05:23:00;5.80;;;2.10;;
54372;SDS011;69157;53.094;10.016;2023-07-22T05:25:26;3.28;;;2.03;;
54372;SDS011;69157;53.094;10.016;2023-07-22T05:27:52;4.43;;;2.42;;
54372;SDS011;69157;53.094;10.016;2023-07-22T05:30:18;4.95;;;2.40;;
54372;SDS011;69157;53.094;10.016;2023-07-22T05:32:44;5.40;;;2.05;;
54372;SDS011;69157;53.094;10.016;2023-07-22T05:35:10;3.13;;;1.90;;
54372;SDS011;69157;53.094;10.016;2023-07-22T05:37:36;4.10;;;1.90;;
54372;SDS011;69157;53.094;10.016;2023-07-22T05:40:02;6.57;;;2.00;;
54372;SDS011;69157;53.094;10.016;2023-07-22T05:42:28;3.67;;;1.92;;
54372;SDS011;69157;53.094;10.016;2023-07-22T05:44:54;3.70;;;1.67;;
54372;SDS011;69157;53.094;10.016;2023-07-22T05:47:21;4.68;;;2.30;;
54372;SDS011;69157;53.094;10.016;2023-07-22T05:49:47;5.75;;;2.60;;
54372;SDS011;69157;53.094;10.016;2023-07-22T05:52:13;7.85;;;2.58;;
54372;SDS011;69157;53.094;10.016;2023-07-22T05:54:39;4.22;;;2.13;;
54372;SDS011;69157;53.094;10.016;2023-07-22T05:57:05;3.67;;;2.30;;
54372;SDS011;69157;53.094;10.016;2023-07-22T05:59:31;4.95;;;2.00;;
54372;SDS011;69157;53.094;10.016;2023-07-22T06:01:58;5.05;;;2.33;;
54372;SDS011;69157;53.094;10.016;2023-07-22T06:04:24;4.05;;;1.95;;
54372;SDS011;69157;53.094;10.016;2023-07-22T06:06:50;5.07;;;2.55;;
54372;SDS011;69157;53.094;10.016;2023-07-22T06:09:16;6.30;;;2.60;;
54372;SDS011;69157;53.094;10.016;2023-07-22T06:11:42;6.88;;;2.22;;
54372;SDS011;69157;53.094;10.016;2023-07-22T06:14:08;5.20;;;2.67;;
54372;SDS011;69157;53.094;10.016;2023-07-22T06:16:34;5.00;;;2.45;;
54372;SDS011;69157;53.094;10.016;2023-07-22T06:19:00;5.03;;;2.47;;
54372;SDS011;69157;53.094;10.016;2023-07-22T06:21:26;6.78;;;2.95;;
54372;SDS011;69157;53.094;10.016;2023-07-22T06:23:52;5.50;;;2.05;;
54372;SDS011;69157;53.094;10.016;2023-07-22T06:26:18;7.55;;;2.60;;
54372;SDS011;69157;53.094;10.016;2023-07-22T06:28:44;6.95;;;2.88;;
54372;SDS011;69157;53.094;10.016;2023-07-22T06:31:10;4.80;;;2.45;;
54372;SDS011;69157;53.094;10.016;2023-07-22T06:33:36;5.47;;;2.33;;
54372;SDS011;69157;53.094;10.016;2023-07-22T06:36:02;5.78;;;2.20;;
54372;SDS011;69157;53.094;10.016;2023-07-22T06:38:28;6.90;;;2.58;;
54372;SDS011;69157;53.094;10.016;2023-07-22T06:40:54;5.40;;;2.17;;
54372;SDS011;69157;53.094;10.016;2023-07-22T06:43:20;3.83;;;2.08;;
54372;SDS011;69157;53.094;10.016;2023-07-22T06:45:46;5.05;;;2.42;;
54372;SDS011;69157;53.094;10.016;2023-07-22T06:48:12;4.80;;;2.60;;
54372;SDS011;69157;53.094;10.016;2023-07-22T06:50:38;6.35;;;2.28;;
54372;SDS011;69157;53.094;10.016;2023-07-22T06:53:04;5.88;;;2.30;;
54372;SDS011;69157;53.094;10.016;2023-07-22T06:55:30;3.60;;;2.00;;
54372;SDS011;69157;53.094;10.016;2023-07-22T06:57:56;4.90;;;2.33;;
54372;SDS011;69157;53.094;10.016;2023-07-22T07:00:23;4.78;;;2.17;;
54372;SDS011;69157;53.094;10.016;2023-07-22T07:02:49;4.18;;;1.98;;
54372;SDS011;69157;53.094;10.016;2023-07-22T07:05:16;6.00;;;2.40;;
54372;SDS011;69157;53.094;10.016;2023-07-22T07:07:42;3.70;;;1.95;;
54372;SDS011;69157;53.094;10.016;2023-07-22T07:10:08;3.10;;;1.95;;
54372;SDS011;69157;53.094;10.016;2023-07-22T07:12:34;4.80;;;1.73;;
54372;SDS011;69157;53.094;10.016;2023-07-22T07:15:00;3.22;;;1.80;;
54372;SDS011;69157;53.094;10.016;2023-07-22T07:17:26;2.88;;;1.80;;
54372;SDS011;69157;53.094;10.016;2023-07-22T07:19:52;4.53;;;2.08;;
54372;SDS011;69157;53.094;10.016;2023-07-22T07:22:18;2.80;;;2.00;;
54372;SDS011;69157;53.094;10.016;2023-07-22T07:24:44;2.95;;;1.85;;
54372;SDS011;69157;53.094;10.016;2023-07-22T07:27:10;3.83;;;2.13;;
54372;SDS011;69157;53.094;10.016;2023-07-22T07:29:37;4.10;;;1.90;;
54372;SDS011;69157;53.094;10.016;2023-07-22T07:32:03;3.38;;;1.50;;
54372;SDS011;69157;53.094;10.016;2023-07-22T07:34:29;3.50;;;1.75;;
54372;SDS011;69157;53.094;10.016;2023-07-22T07:36:55;3.72;;;1.52;;
54372;SDS011;69157;53.094;10.016;2023-07-22T07:39:21;2.25;;;1.63;;
54372;SDS011;69157;53.094;10.016;2023-07-22T07:41:47;3.78;;;1.60;;
54372;SDS011;69157;53.094;10.016;2023-07-22T07:44:13;2.28;;;1.13;;
54372;SDS011;69157;53.094;10.016;2023-07-22T07:46:39;2.72;;;1.38;;
54372;SDS011;69157;53.094;10.016;2023-07-22T07:49:05;2.42;;;1.40;;
54372;SDS011;69157;53.094;10.016;2023-07-22T07:51:31;4.40;;;1.60;;
54372;SDS011;69157;53.094;10.016;2023-07-22T07:53:59;2.80;;;1.42;;
54372;SDS011;69157;53.094;10.016;2023-07-22T07:56:25;1.77;;;1.40;;
54372;SDS011;69157;53.094;10.016;2023-07-22T07:58:52;1.80;;;1.20;;
54372;SDS011;69157;53.094;10.016;2023-07-22T08:01:19;1.90;;;1.27;;
54372;SDS011;69157;53.094;10.016;2023-07-22T08:03:46;2.65;;;1.15;;
54372;SDS011;69157;53.094;10.016;2023-07-22T08:06:12;4.53;;;0.95;;
54372;SDS011;69157;53.094;10.016;2023-07-22T08:08:38;2.42;;;1.13;;
54372;SDS011;69157;53.094;10.016;2023-07-22T08:11:11;1.83;;;1.05;;
54372;SDS011;69157;53.094;10.016;2023-07-22T08:13:41;3.63;;;1.10;;
54372;SDS011;69157;53.094;10.016;2023-07-22T08:16:07;2.47;;;1.10;;
54372;SDS011;69157;53.094;10.016;2023-07-22T08:18:34;3.58;;;1.02;;
54372;SDS011;69157;53.094;10.016;2023-07-22T08:21:01;1.85;;;1.25;;
54372;SDS011;69157;53.094;10.016;2023-07-22T08:23:27;2.33;;;1.13;;
54372;SDS011;69157;53.094;10.016;2023-07-22T08:25:53;0.90;;;0.70;;
54372;SDS011;69157;53.094;10.016;2023-07-22T08:28:19;2.15;;;0.90;;
54372;SDS011;69157;53.094;10.016;2023-07-22T08:30:47;0.80;;;0.75;;
54372;SDS011;69157;53.094;10.016;2023-07-22T08:33:14;2.72;;;1.02;;
54372;SDS011;69157;53.094;10.016;2023-07-22T08:35:41;2.72;;;1.00;;
54372;SDS011;69157;53.094;10.016;2023-07-22T08:38:07;2.13;;;0.90;;
54372;SDS011;69157;53.094;10.016;2023-07-22T08:40:37;1.20;;;0.70;;
54372;SDS011;69157;53.094;10.016;2023-07-22T08:43:04;1.48;;;0.80;;
54372;SDS011;69157;53.094;10.016;2023-07-22T08:45:30;1.73;;;0.80;;
54372;SDS011;69157;53.094;10.016;2023-07-22T08:47:58;2.72;;;0.80;;
54372;SDS011;69157;53.094;10.016;2023-07-22T08:50:25;0.80;;;0.70;;
54372;SDS011;69157;53.094;10.016;2023-07-22T08:52:52;1.25;;;0.73;;
54372;SDS011;69157;53.094;10.016;2023-07-22T08:55:18;1.98;;;0.80;;
54372;SDS011;69157;53.094;10.016;2023-07-22T08:57:44;1.42;;;0.90;;
54372;SDS011;69157;53.094;10.016;2023-07-22T09:00:10;0.95;;;0.63;;
54372;SDS011;69157;53.094;10.016;2023-07-22T09:02:37;1.52;;;0.82;;
54372;SDS011;69157;53.094;10.016;2023-07-22T09:05:05;2.00;;;0.90;;
54372;SDS011;69157;53.094;10.016;2023-07-22T09:07:31;0.90;;;0.60;;
54372;SDS011;69157;53.094;10.016;2023-07-22T09:09:57;1.35;;;0.80;;
54372;SDS011;69157;53.094;10.016;2023-07-22T09:12:23;1.85;;;0.80;;
54372;SDS011;69157;53.094;10.016;2023-07-22T09:14:50;1.15;;;0.70;;
54372;SDS011;69157;53.094;10.016;2023-07-22T09:17:16;0.88;;;0.68;;
54372;SDS011;69157;53.094;10.016;2023-07-22T09:19:42;1.50;;;0.80;;
54372;SDS011;69157;53.094;10.016;2023-07-22T09:22:08;1.15;;;0.80;;
54372;SDS011;69157;53.094;10.016;2023-07-22T09:24:35;0.93;;;0.80;;
54372;SDS011;69157;53.094;10.016;2023-07-22T09:27:01;1.25;;;0.77;;
54372;SDS011;69157;53.094;10.016;2023-07-22T09:29:33;1.58;;;0.70;;
54372;SDS011;69157;53.094;10.016;2023-07-22T09:32:00;1.17;;;0.75;;
54372;SDS011;69157;53.094;10.016;2023-07-22T09:34:26;3.25;;;0.70;;
54372;SDS011;69157;53.094;10.016;2023-07-22T09:36:53;1.00;;;0.63;;
54372;SDS011;69157;53.094;10.016;2023-07-22T09:39:23;1.70;;;0.75;;
54372;SDS011;69157;53.094;10.016;2023-07-22T09:41:49;0.98;;;0.88;;
54372;SDS011;69157;53.094;10.016;2023-07-22T09:44:17;1.77;;;0.90;;
54372;SDS011;69157;53.094;10.016;2023-07-22T09:46:46;1.42;;;0.90;;
54372;SDS011;69157;53.094;10.016;2023-07-22T09:49:13;1.90;;;1.20;;
54372;SDS011;69157;53.094;10.016;2023-07-22T09:51:39;1.38;;;0.82;;
54372;SDS011;69157;53.094;10.016;2023-07-22T09:54:05;2.05;;;0.93;;
54372;SDS011;69157;53.094;10.016;2023-07-22T09:56:32;1.85;;;0.73;;
54372;SDS011;69157;53.094;10.016;2023-07-22T09:58:58;1.35;;;0.65;;
54372;SDS011;69157;53.094;10.016;2023-07-22T10:01:25;1.42;;;0.98;;
54372;SDS011;69157;53.094;10.016;2023-07-22T10:03:54;1.02;;;0.68;;
54372;SDS011;69157;53.094;10.016;2023-07-22T10:06:21;1.95;;;0.90;;
54372;SDS011;69157;53.094;10.016;2023-07-22T10:08:49;1.45;;;0.90;;
54372;SDS011;69157;53.094;10.016;2023-07-22T10:11:15;1.55;;;0.90;;
54372;SDS011;69157;53.094;10.016;2023-07-22T10:13:41;1.35;;;0.90;;
54372;SDS011;69157;53.094;10.016;2023-07-22T10:16:07;1.13;;;0.90;;
54372;SDS011;69157;53.094;10.016;2023-07-22T10:18:33;2.22;;;1.10;;
54372;SDS011;69157;53.094;10.016;2023-07-22T10:21:00;2.33;;;1.13;;
54372;SDS011;69157;53.094;10.016;2023-07-22T10:23:26;3.20;;;1.20;;
54372;SDS011;69157;53.094;10.016;2023-07-22T10:25:52;2.08;;;1.30;;
54372;SDS011;69157;53.094;10.016;2023-07-22T10:28:20;2.22;;;1.15;;
54372;SDS011;69157;53.094;10.016;2023-07-22T10:30:46;2.08;;;1.10;;
54372;SDS011;69157;53.094;10.016;2023-07-22T10:33:12;2.95;;;1.30;;
54372;SDS011;69157;53.094;10.016;2023-07-22T10:35:42;3.03;;;1.35;;
54372;SDS011;69157;53.094;10.016;2023-07-22T10:43:11;2.67;;;1.50;;
54372;SDS011;69157;53.094;10.016;2023-07-22T10:45:41;1.85;;;1.40;;
54372;SDS011;69157;53.094;10.016;2023-07-22T10:50:46;9.40;;;4.60;;
54372;SDS011;69157;53.094;10.016;2023-07-22T10:56:03;2.55;;;1.42;;
54372;SDS011;69157;53.094;10.016;2023-07-22T10:58:54;2.83;;;1.50;;
54372;SDS011;69157;53.094;10.016;2023-07-22T11:06:32;3.28;;;1.77;;
54372;SDS011;69157;53.094;10.016;2023-07-22T11:08:58;3.33;;;1.83;;
54372;SDS011;69157;53.094;10.016;2023-07-22T11:11:38;4.13;;;1.60;;
54372;SDS011;69157;53.094;10.016;2023-07-22T11:14:14;3.97;;;2.13;;
54372;SDS011;69157;53.094;10.016;2023-07-22T11:16:41;4.70;;;2.20;;
54372;SDS011;69157;53.094;10.016;2023-07-22T11:19:07;3.78;;;2.13;;
54372;SDS011;69157;53.094;10.016;2023-07-22T11:21:33;5.10;;;2.30;;
54372;SDS011;69157;53.094;10.016;2023-07-22T11:23:59;3.22;;;2.17;;
54372;SDS011;69157;53.094;10.016;2023-07-22T11:26:25;4.78;;;2.42;;
54372;SDS011;69157;53.094;10.016;2023-07-22T11:28:51;3.47;;;1.67;;
54372;SDS011;69157;53.094;10.016;2023-07-22T11:31:18;3.50;;;2.40;;
54372;SDS011;69157;53.094;10.016;2023-07-22T11:33:44;3.97;;;1.98;;
54372;SDS011;69157;53.094;10.016;2023-07-22T11:36:12;3.63;;;1.90;;
54372;SDS011;69157;53.094;10.016;2023-07-22T11:38:38;4.40;;;1.98;;
54372;SDS011;69157;53.094;10.016;2023-07-22T11:41:05;4.90;;;1.85;;
54372;SDS011;69157;53.094;10.016;2023-07-22T11:43:31;5.63;;;2.20;;
54372;SDS011;69157;53.094;10.016;2023-07-22T11:45:57;3.95;;;2.20;;
54372;SDS011;69157;53.094;10.016;2023-07-22T11:48:23;6.82;;;3.78;;
54372;SDS011;69157;53.094;10.016;2023-07-22T11:50:49;5.03;;;2.65;;
54372;SDS011;69157;53.094;10.016;2023-07-22T11:53:15;3.60;;;2.10;;
54372;SDS011;69157;53.094;10.016;2023-07-22T11:55:42;4.18;;;2.35;;
54372;SDS011;69157;53.094;10.016;2023-07-22T11:58:08;2.45;;;1.88;;
54372;SDS011;69157;53.094;10.016;2023-07-22T12:00:34;3.08;;;1.88;;
54372;SDS011;69157;53.094;10.016;2023-07-22T12:03:06;4.53;;;2.15;;
54372;SDS011;69157;53.094;10.016;2023-07-22T12:05:34;2.40;;;1.58;;
54372;SDS011;69157;53.094;10.016;2023-07-22T12:08:03;4.13;;;2.17;;
54372;SDS011;69157;53.094;10.016;2023-07-22T12:10:29;3.50;;;1.75;;
54372;SDS011;69157;53.094;10.016;2023-07-22T12:12:55;3.60;;;1.98;;
54372;SDS011;69157;53.094;10.016;2023-07-22T12:15:26;4.82;;;2.17;;
54372;SDS011;69157;53.094;10.016;2023-07-22T12:17:55;3.80;;;1.80;;
54372;SDS011;69157;53.094;10.016;2023-07-22T12:20:26;2.92;;;1.60;;
54372;SDS011;69157;53.094;10.016;2023-07-22T12:25:18;1.98;;;1.42;;
54372;SDS011;69157;53.094;10.016;2023-07-22T12:27:44;1.88;;;1.35;;
54372;SDS011;69157;53.094;10.016;2023-07-22T12:30:10;3.35;;;1.80;;
54372;SDS011;69157;53.094;10.016;2023-07-22T12:32:37;3.53;;;1.80;;
54372;SDS011;69157;53.094;10.016;2023-07-22T12:35:03;3.78;;;1.80;;
54372;SDS011;69157;53.094;10.016;2023-07-22T12:37:29;3.58;;;1.80;;
54372;SDS011;69157;53.094;10.016;2023-07-22T12:39:56;3.30;;;1.85;;
54372;SDS011;69157;53.094;10.016;2023-07-22T12:42:22;4.22;;;2.00;;
54372;SDS011;69157;53.094;10.016;2023-07-22T12:44:48;3.88;;;2.10;;
54372;SDS011;69157;53.094;10.016;2023-07-22T12:47:14;3.90;;;2.00;;
54372;SDS011;69157;53.094;10.016;2023-07-22T12:49:40;3.38;;;1.92;;
54372;SDS011;69157;53.094;10.016;2023-07-22T12:52:06;3.25;;;1.67;;
54372;SDS011;69157;53.094;10.016;2023-07-22T12:54:37;4.25;;;1.90;;
54372;SDS011;69157;53.094;10.016;2023-07-22T12:57:03;2.38;;;1.50;;
54372;SDS011;69157;53.094;10.016;2023-07-22T12:59:29;2.45;;;1.45;;
54372;SDS011;69157;53.094;10.016;2023-07-22T13:01:55;3.22;;;2.00;;
54372;SDS011;69157;53.094;10.016;2023-07-22T13:04:23;3.53;;;1.70;;
54372;SDS011;69157;53.094;10.016;2023-07-22T13:06:49;3.17;;;1.70;;
54372;SDS011;69157;53.094;10.016;2023-07-22T13:09:16;2.85;;;1.42;;
54372;SDS011;69157;53.094;10.016;2023-07-22T13:11:42;3.45;;;1.83;;
54372;SDS011;69157;53.094;10.016;2023-07-22T13:14:08;3.20;;;1.80;;
54372;SDS011;69157;53.094;10.016;2023-07-22T13:16:34;2.13;;;1.33;;
54372;SDS011;69157;53.094;10.016;2023-07-22T13:19:01;1.67;;;1.30;;
54372;SDS011;69157;53.094;10.016;2023-07-22T13:21:28;2.78;;;1.42;;
54372;SDS011;69157;53.094;10.016;2023-07-22T13:23:54;2.00;;;1.25;;
54372;SDS011;69157;53.094;10.016;2023-07-22T13:26:20;1.60;;;1.17;;
54372;SDS011;69157;53.094;10.016;2023-07-22T13:28:46;2.80;;;1.52;;
54372;SDS011;69157;53.094;10.016;2023-07-22T13:31:12;2.05;;;1.40;;
54372;SDS011;69157;53.094;10.016;2023-07-22T13:33:38;1.75;;;1.20;;
54372;SDS011;69157;53.094;10.016;2023-07-22T13:36:05;3.67;;;1.92;;
54372;SDS011;69157;53.094;10.016;2023-07-22T13:38:31;2.60;;;1.40;;
54372;SDS011;69157;53.094;10.016;2023-07-22T13:40:57;1.80;;;1.50;;
54372;SDS011;69157;53.094;10.016;2023-07-22T13:43:23;2.60;;;1.80;;
54372;SDS011;69157;53.094;10.016;2023-07-22T13:45:50;3.03;;;1.88;;
54372;SDS011;69157;53.094;10.016;2023-07-22T13:48:16;2.80;;;1.88;;
54372;SDS011;69157;53.094;10.016;2023-07-22T13:50:42;2.72;;;2.00;;
54372;SDS011;69157;53.094;10.016;2023-07-22T13:53:08;2.67;;;1.80;;
54372;SDS011;69157;53.094;10.016;2023-07-22T13:55:34;2.25;;;1.83;;
54372;SDS011;69157;53.094;10.016;2023-07-22T13:58:00;5.35;;;2.10;;
54372;SDS011;69157;53.094;10.016;2023-07-22T14:00:26;3.00;;;2.10;;
54372;SDS011;69157;53.094;10.016;2023-07-22T14:02:52;2.80;;;2.17;;
54372;SDS011;69157;53.094;10.016;2023-07-22T14:05:18;3.00;;;2.08;;
54372;SDS011;69157;53.094;10.016;2023-07-22T14:07:44;2.25;;;2.05;;
54372;SDS011;69157;53.094;10.016;2023-07-22T14:10:10;4.18;;;2.42;;
54372;SDS011;69157;53.094;10.016;2023-07-22T14:12:36;3.65;;;2.67;;
54372;SDS011;69157;53.094;10.016;2023-07-22T14:15:02;5.95;;;3.10;;
54372;SDS011;69157;53.094;10.016;2023-07-22T14:17:31;5.53;;;3.65;;
54372;SDS011;69157;53.094;10.016;2023-07-22T14:19:57;5.82;;;3.50;;
54372;SDS011;69157;53.094;10.016;2023-07-22T14:22:24;6.03;;;3.92;;
54372;SDS011;69157;53.094;10.016;2023-07-22T14:24:50;5.38;;;3.90;;
54372;SDS011;69157;53.094;10.016;2023-07-22T14:27:16;5.65;;;3.72;;
54372;SDS011;69157;53.094;10.016;2023-07-22T14:29:42;5.47;;;3.65;;
54372;SDS011;69157;53.094;10.016;2023-07-22T14:32:08;6.45;;;4.10;;
54372;SDS011;69157;53.094;10.016;2023-07-22T14:34:34;5.20;;;3.80;;
54372;SDS011;69157;53.094;10.016;2023-07-22T14:37:00;5.93;;;3.70;;
54372;SDS011;69157;53.094;10.016;2023-07-22T14:39:26;5.80;;;4.05;;
54372;SDS011;69157;53.094;10.016;2023-07-22T14:41:52;6.38;;;4.00;;
54372;SDS011;69157;53.094;10.016;2023-07-22T14:44:19;5.93;;;4.03;;
54372;SDS011;69157;53.094;10.016;2023-07-22T14:46:45;5.88;;;4.10;;